createdAt,value
2018-06-23T00:00:46.643Z,4.00
2018-06-23T00:03:14.624Z,4.33
2018-06-23T00:05:42.610Z,3.40
2018-06-23T00:08:10.890Z,4.07
2018-06-23T00:10:38.899Z,3.90
2018-06-23T00:13:06.872Z,3.60
2018-06-23T00:15:34.821Z,3.50
2018-06-23T00:18:02.756Z,3.60
2018-06-23T00:20:30.786Z,3.33
2018-06-23T00:22:58.740Z,3.40
2018-06-23T00:25:32.212Z,3.90
2018-06-23T00:28:00.176Z,3.90
2018-06-23T00:30:28.167Z,3.70
2018-06-23T00:32:56.137Z,4.37
2018-06-23T00:35:24.098Z,3.33
2018-06-23T00:37:52.821Z,3.90
2018-06-23T00:40:20.757Z,4.40
2018-06-23T00:42:48.776Z,4.57
2018-06-23T00:45:16.724Z,4.03
2018-06-23T00:47:44.663Z,3.80
2018-06-23T00:50:12.591Z,3.80
2018-06-23T00:52:40.584Z,3.50
2018-06-23T00:55:08.585Z,4.23
2018-06-23T00:57:36.516Z,3.90
2018-06-23T01:00:05.671Z,4.08
2018-06-23T01:02:33.643Z,3.40
2018-06-23T01:05:01.577Z,4.00
2018-06-23T01:07:29.525Z,4.07
2018-06-23T01:09:57.476Z,3.47
2018-06-23T01:12:25.470Z,4.43
2018-06-23T01:14:53.581Z,4.47
2018-06-23T01:17:21.731Z,4.57
2018-06-23T01:19:49.683Z,4.30
2018-06-23T01:22:17.699Z,4.33
2018-06-23T01:24:45.636Z,3.93
2018-06-23T01:27:13.612Z,4.90
2018-06-23T01:29:41.569Z,3.93
2018-06-23T01:32:09.527Z,3.90
2018-06-23T01:34:37.556Z,3.90
2018-06-23T01:37:05.508Z,4.03
2018-06-23T01:39:33.476Z,4.00
2018-06-23T01:42:01.452Z,4.67
2018-06-23T01:44:29.391Z,4.40
2018-06-23T01:46:57.356Z,4.53
2018-06-23T01:49:25.418Z,3.83
2018-06-23T01:51:54.343Z,4.37
2018-06-23T01:54:22.383Z,5.00
2018-06-23T01:56:50.319Z,4.80
2018-06-23T01:59:18.297Z,5.10
2018-06-23T02:01:46.295Z,3.70
2018-06-23T02:04:14.216Z,4.67
2018-06-23T02:06:42.148Z,4.40
2018-06-23T02:09:10.777Z,4.63
2018-06-23T02:11:38.772Z,4.87
2018-06-23T02:14:12.280Z,3.87
2018-06-23T02:16:45.664Z,5.27
2018-06-23T02:19:19.093Z,5.67
2018-06-23T02:22:51.280Z,4.70
2018-06-23T02:25:24.696Z,4.87
2018-06-23T02:27:58.289Z,5.73
2018-06-23T02:30:34.520Z,4.20
2018-06-23T02:33:08.050Z,4.43
2018-06-23T02:35:35.969Z,4.33
2018-06-23T02:38:03.912Z,4.00
2018-06-23T02:40:31.957Z,5.20
2018-06-23T02:42:59.917Z,3.90
2018-06-23T02:45:27.897Z,4.80
2018-06-23T02:47:55.874Z,4.87
2018-06-23T02:50:24.356Z,3.80
2018-06-23T02:52:52.124Z,4.60
2018-06-23T02:55:20.088Z,5.77
2018-06-23T02:57:48.118Z,4.47
2018-06-23T03:00:16.061Z,4.10
2018-06-23T03:02:43.878Z,3.90
2018-06-23T03:05:11.822Z,4.60
2018-06-23T03:07:39.789Z,4.70
2018-06-23T03:10:07.808Z,5.00
2018-06-23T03:12:35.733Z,3.80
2018-06-23T03:15:03.699Z,4.47
2018-06-23T03:17:31.676Z,4.40
2018-06-23T03:19:59.646Z,4.33
2018-06-23T03:22:27.636Z,4.77
2018-06-23T03:24:56.093Z,5.70
2018-06-23T03:27:24.072Z,4.80
2018-06-23T03:29:52.004Z,4.00
2018-06-23T03:32:19.956Z,5.27
2018-06-23T03:34:47.921Z,3.83
2018-06-23T03:37:15.917Z,3.80
2018-06-23T03:39:43.892Z,4.20
2018-06-23T03:42:11.817Z,3.77
2018-06-23T03:44:39.846Z,4.20
2018-06-23T03:47:07.805Z,4.70
2018-06-23T03:49:35.789Z,3.90
2018-06-23T03:52:03.745Z,4.50
2018-06-23T03:54:31.881Z,4.77
2018-06-23T03:56:59.819Z,3.97
2018-06-23T03:59:27.800Z,5.13
2018-06-23T04:01:56.756Z,5.17
2018-06-23T04:04:24.851Z,4.30
2018-06-23T04:06:52.923Z,4.50
2018-06-23T04:09:20.896Z,5.17
2018-06-23T04:11:48.845Z,5.13
2018-06-23T04:14:16.852Z,4.53
2018-06-23T04:16:44.848Z,4.60
2018-06-23T04:19:12.760Z,4.93
2018-06-23T04:21:40.712Z,5.03
2018-06-23T04:24:08.783Z,4.73
2018-06-23T04:26:36.767Z,5.75
2018-06-23T04:29:04.960Z,4.90
2018-06-23T04:31:32.891Z,4.67
2018-06-23T04:34:00.820Z,4.77
2018-06-23T04:36:28.784Z,4.70
2018-06-23T04:38:57.365Z,5.03
2018-06-23T04:41:25.370Z,4.93
2018-06-23T04:43:53.448Z,5.37
2018-06-23T04:46:21.424Z,5.12
2018-06-23T04:48:49.416Z,5.23
2018-06-23T04:51:17.371Z,5.00
2018-06-23T04:53:49.068Z,5.28
2018-06-23T04:56:17.229Z,6.00
2018-06-23T04:58:45.232Z,5.97
2018-06-23T05:01:13.184Z,5.60
2018-06-23T05:03:41.156Z,5.73
2018-06-23T05:06:09.104Z,5.60
2018-06-23T05:08:37.941Z,6.10
2018-06-23T05:11:05.863Z,5.50
2018-06-23T05:13:33.807Z,5.40
2018-06-23T05:16:01.748Z,4.90
2018-06-23T05:18:29.796Z,5.30
2018-06-23T05:20:58.195Z,5.33
2018-06-23T05:23:26.280Z,5.60
2018-06-23T05:25:54.174Z,4.80
2018-06-23T05:28:22.231Z,5.00
2018-06-23T05:30:50.312Z,5.30
2018-06-23T05:33:19.872Z,5.77
2018-06-23T05:35:47.813Z,5.00
2018-06-23T05:38:15.796Z,4.70
2018-06-23T05:40:43.752Z,5.20
2018-06-23T05:43:11.720Z,5.13
2018-06-23T05:45:39.833Z,4.77
2018-06-23T05:48:07.907Z,5.07
2018-06-23T05:50:35.892Z,5.10
2018-06-23T05:53:04.008Z,4.60
2018-06-23T05:55:31.983Z,4.70
2018-06-23T05:57:59.960Z,4.97
2018-06-23T06:00:28.978Z,4.90
2018-06-23T06:02:56.943Z,5.13
2018-06-23T06:05:25.030Z,5.57
2018-06-23T06:07:52.995Z,5.70
2018-06-23T06:10:20.962Z,5.60
2018-06-23T06:12:48.883Z,5.80
2018-06-23T06:15:16.881Z,5.30
2018-06-23T06:17:44.844Z,5.73
2018-06-23T06:20:13.956Z,5.30
2018-06-23T06:22:43.041Z,5.10
2018-06-23T06:25:11.633Z,5.80
2018-06-23T06:27:39.729Z,5.73
2018-06-23T06:30:09.058Z,5.90
2018-06-23T06:32:37.018Z,6.27
2018-06-23T06:35:05.700Z,6.30
2018-06-23T06:37:33.701Z,6.60
2018-06-23T06:40:01.780Z,6.77
2018-06-23T06:42:29.744Z,6.70
2018-06-23T06:44:57.764Z,6.30
2018-06-23T06:47:25.785Z,6.67
2018-06-23T06:49:53.796Z,6.17
2018-06-23T06:52:21.771Z,6.20
2018-06-23T06:54:49.717Z,5.20
2018-06-23T06:57:17.769Z,5.73
2018-06-23T06:59:45.824Z,4.97
2018-06-23T07:02:13.784Z,4.30
2018-06-23T07:04:41.747Z,4.90
2018-06-23T07:07:09.746Z,4.90
2018-06-23T07:09:37.670Z,4.33
2018-06-23T07:12:05.943Z,4.00
2018-06-23T07:14:33.915Z,4.80
2018-06-23T07:17:01.907Z,4.50
2018-06-23T07:19:30.696Z,3.90
2018-06-23T07:21:58.665Z,3.90
2018-06-23T07:24:26.844Z,4.10
2018-06-23T07:26:54.809Z,3.63
2018-06-23T07:29:22.827Z,4.00
2018-06-23T07:31:50.884Z,4.20
2018-06-23T07:34:18.843Z,3.60
2018-06-23T07:36:46.777Z,3.40
2018-06-23T07:39:14.774Z,3.10
2018-06-23T07:41:42.845Z,2.70
2018-06-23T07:44:10.815Z,3.07
2018-06-23T07:46:38.791Z,2.60
2018-06-23T07:49:06.780Z,2.37
2018-06-23T07:51:34.725Z,2.70
2018-06-23T07:54:02.684Z,2.90
2018-06-23T07:56:31.347Z,4.28
2018-06-23T07:58:59.319Z,3.13
2018-06-23T08:01:27.404Z,3.70
2018-06-23T08:03:55.595Z,4.80
2018-06-23T08:06:23.656Z,4.20
2018-06-23T08:08:51.600Z,3.80
2018-06-23T08:11:19.532Z,4.60
2018-06-23T08:13:47.476Z,4.50
2018-06-23T08:16:15.442Z,5.80
2018-06-23T08:18:43.472Z,5.60
2018-06-23T08:21:11.529Z,5.10
2018-06-23T08:23:39.539Z,5.20
2018-06-23T08:26:07.502Z,5.67
2018-06-23T08:28:36.258Z,4.83
2018-06-23T08:31:04.816Z,4.70
2018-06-23T08:33:32.742Z,4.70
2018-06-23T08:36:00.787Z,5.30
2018-06-23T08:38:28.736Z,4.57
2018-06-23T08:40:56.523Z,4.70
2018-06-23T08:43:24.492Z,4.90
2018-06-23T08:45:52.457Z,4.50
2018-06-23T08:48:20.414Z,4.70
2018-06-23T08:50:48.361Z,4.60
2018-06-23T08:53:16.547Z,3.70
2018-06-23T08:55:44.541Z,5.00
2018-06-23T08:58:12.537Z,4.23
2018-06-23T09:00:40.481Z,4.97
2018-06-23T09:03:08.403Z,4.20
2018-06-23T09:05:36.368Z,4.70
2018-06-23T09:08:04.333Z,4.20
2018-06-23T09:10:32.577Z,4.70
2018-06-23T09:13:00.703Z,4.90
2018-06-23T09:15:28.684Z,4.50
2018-06-23T09:17:56.760Z,4.57
2018-06-23T09:20:24.868Z,4.40
2018-06-23T09:22:52.835Z,4.60
2018-06-23T09:25:20.815Z,3.53
2018-06-23T09:27:48.780Z,3.87
2018-06-23T09:30:16.549Z,3.67
2018-06-23T09:32:44.563Z,4.10
2018-06-23T09:35:12.560Z,3.80
2018-06-23T09:37:40.523Z,4.13
2018-06-23T09:40:08.524Z,3.90
2018-06-23T09:42:36.489Z,3.73
2018-06-23T09:45:04.563Z,3.87
2018-06-23T09:47:33.464Z,5.10
2018-06-23T09:50:01.457Z,3.63
2018-06-23T09:52:29.550Z,3.70
2018-06-23T09:54:57.626Z,3.83
2018-06-23T09:57:25.601Z,3.67
2018-06-23T09:59:53.615Z,3.30
2018-06-23T10:02:21.673Z,3.23
2018-06-23T10:04:49.643Z,3.80
2018-06-23T10:07:17.610Z,4.40
2018-06-23T10:09:45.509Z,3.57
2018-06-23T10:12:13.734Z,4.00
2018-06-23T10:14:41.691Z,3.53
2018-06-23T10:17:09.680Z,3.60
2018-06-23T10:19:37.640Z,3.13
2018-06-23T10:22:05.652Z,3.30
2018-06-23T10:24:34.029Z,3.50
2018-06-23T10:27:02.006Z,3.27
2018-06-23T10:29:29.972Z,3.00
2018-06-23T10:31:57.932Z,3.50
2018-06-23T10:34:25.970Z,3.90
2018-06-23T10:36:54.012Z,2.83
2018-06-23T10:39:21.963Z,4.03
2018-06-23T10:41:49.972Z,3.47
2018-06-23T10:44:17.948Z,3.83
2018-06-23T10:46:46.042Z,3.47
2018-06-23T10:49:13.996Z,3.83
2018-06-23T10:51:42.012Z,3.17
2018-06-23T10:54:09.987Z,3.80
2018-06-23T10:56:37.986Z,3.43
2018-06-23T10:59:05.945Z,3.43
2018-06-23T11:01:34.593Z,3.90
2018-06-23T11:04:02.542Z,3.30
2018-06-23T11:06:30.548Z,3.53
2018-06-23T11:08:58.503Z,3.57
2018-06-23T11:11:26.589Z,3.70
2018-06-23T11:13:54.549Z,3.70
2018-06-23T11:16:22.531Z,3.50
2018-06-23T11:18:50.692Z,3.63
2018-06-23T11:21:18.644Z,3.80
2018-06-23T11:23:46.581Z,4.17
2018-06-23T11:26:14.495Z,3.63
2018-06-23T11:28:42.543Z,4.07
2018-06-23T11:31:10.478Z,3.33
2018-06-23T11:33:38.452Z,4.00
2018-06-23T11:36:06.385Z,3.70
2018-06-23T11:38:35.232Z,3.80
2018-06-23T11:41:03.203Z,3.80
2018-06-23T11:43:31.168Z,4.47
2018-06-23T11:45:59.129Z,4.93
2018-06-23T11:48:27.149Z,5.50
2018-06-23T11:50:55.090Z,4.10
2018-06-23T11:53:23.046Z,3.60
2018-06-23T11:55:50.963Z,4.07
2018-06-23T11:58:18.907Z,3.80
2018-06-23T12:00:46.923Z,3.80
2018-06-23T12:03:14.959Z,4.53
2018-06-23T12:05:42.844Z,3.80
2018-06-23T12:08:10.843Z,4.53
2018-06-23T12:10:38.848Z,4.00
2018-06-23T12:13:06.956Z,3.80
2018-06-23T12:15:35.567Z,3.75
2018-06-23T12:18:03.704Z,4.63
2018-06-23T12:20:31.783Z,4.37
2018-06-23T12:22:59.716Z,4.10
2018-06-23T12:25:27.712Z,5.33
2018-06-23T12:27:55.731Z,4.67
2018-06-23T12:30:23.739Z,3.80
2018-06-23T12:32:51.632Z,4.63
2018-06-23T12:35:19.772Z,4.50
2018-06-23T12:37:47.855Z,4.03
2018-06-23T12:40:15.806Z,4.10
2018-06-23T12:42:43.760Z,4.00
2018-06-23T12:45:11.787Z,4.33
2018-06-23T12:47:39.746Z,4.67
2018-06-23T12:50:07.717Z,4.03
2018-06-23T12:52:36.076Z,3.90
2018-06-23T12:55:04.063Z,4.07
2018-06-23T12:57:32.003Z,4.00
2018-06-23T12:59:59.991Z,3.53
2018-06-23T13:02:27.980Z,4.13
2018-06-23T13:04:56.041Z,4.80
2018-06-23T13:07:23.945Z,4.27
2018-06-23T13:09:51.931Z,3.97
2018-06-23T13:12:19.925Z,4.70
2018-06-23T13:14:47.819Z,4.50
2018-06-23T13:17:15.795Z,4.80
2018-06-23T13:19:43.764Z,4.77
2018-06-23T13:22:11.832Z,5.37
2018-06-23T13:24:39.790Z,4.50
2018-06-23T13:27:07.746Z,4.87
2018-06-23T13:29:36.604Z,5.00
2018-06-23T13:32:04.560Z,4.70
2018-06-23T13:34:32.481Z,4.80
2018-06-23T13:37:00.513Z,4.50
2018-06-23T13:39:28.528Z,4.37
2018-06-23T13:41:56.499Z,4.80
2018-06-23T13:44:24.450Z,4.80
2018-06-23T13:46:52.561Z,4.37
2018-06-23T13:49:20.483Z,4.40
2018-06-23T13:51:48.540Z,4.57
2018-06-23T13:54:16.463Z,4.60
2018-06-23T13:56:44.407Z,4.50
2018-06-23T13:59:12.348Z,3.87
2018-06-23T14:01:40.273Z,4.53
2018-06-23T14:04:08.342Z,3.90
2018-06-23T14:06:37.222Z,4.10
2018-06-23T14:09:07.994Z,3.83
2018-06-23T14:11:36.061Z,3.87
2018-06-23T14:14:03.997Z,4.80
2018-06-23T14:16:31.951Z,4.13
2018-06-23T14:18:59.996Z,3.90
2018-06-23T14:21:27.942Z,5.10
2018-06-23T14:23:55.966Z,4.53
2018-06-23T14:26:24.051Z,4.50
2018-06-23T14:28:51.992Z,4.37
2018-06-23T14:31:20.035Z,4.75
2018-06-23T14:33:48.099Z,3.83
2018-06-23T14:36:16.026Z,5.00
2018-06-23T14:38:43.994Z,4.80
2018-06-23T14:41:12.051Z,4.90
2018-06-23T14:43:40.029Z,4.60
2018-06-23T14:46:07.980Z,4.40
2018-06-23T14:48:35.936Z,3.73
2018-06-23T14:51:03.962Z,4.20
2018-06-23T14:53:31.896Z,4.30
2018-06-23T14:55:59.838Z,4.50
2018-06-23T14:58:27.873Z,4.57
2018-06-23T15:00:55.836Z,4.60
2018-06-23T15:03:23.865Z,4.27
2018-06-23T15:05:51.885Z,4.97
2018-06-23T15:08:31.234Z,4.10
2018-06-23T15:11:10.747Z,4.20
2018-06-23T15:13:38.682Z,4.53
2018-06-23T15:16:06.711Z,5.13
2018-06-23T15:18:34.655Z,4.37
2018-06-23T15:21:02.591Z,4.93
2018-06-23T15:23:30.557Z,4.00
2018-06-23T15:25:58.512Z,4.70
2018-06-23T15:28:26.512Z,3.67
2018-06-23T15:30:54.448Z,4.03
2018-06-23T15:33:22.412Z,4.43
2018-06-23T15:35:50.464Z,4.10
2018-06-23T15:38:18.460Z,4.03
2018-06-23T15:40:46.429Z,3.90
2018-06-23T15:43:14.347Z,4.30
2018-06-23T15:45:42.332Z,4.33
2018-06-23T15:48:10.226Z,4.40
2018-06-23T15:50:38.195Z,3.77
2018-06-23T15:53:06.255Z,4.43
2018-06-23T15:55:34.150Z,3.50
2018-06-23T15:58:02.089Z,3.43
2018-06-23T16:00:30.064Z,3.70
2018-06-23T16:02:58.006Z,4.13
2018-06-23T16:05:26.033Z,4.67
2018-06-23T16:07:53.974Z,4.10
2018-06-23T16:10:23.633Z,4.40
2018-06-23T16:12:51.814Z,4.37
2018-06-23T16:15:19.734Z,4.60
2018-06-23T16:17:47.722Z,4.57
2018-06-23T16:20:15.820Z,4.60
2018-06-23T16:22:44.500Z,4.90
2018-06-23T16:25:12.588Z,4.27
2018-06-23T16:27:40.541Z,4.70
2018-06-23T16:30:08.518Z,4.47
2018-06-23T16:32:36.791Z,4.35
2018-06-23T16:35:05.028Z,4.27
2018-06-23T16:37:32.892Z,4.40
2018-06-23T16:40:01.048Z,4.20
2018-06-23T16:42:29.446Z,4.33
2018-06-23T16:44:57.625Z,4.33
2018-06-23T16:47:25.592Z,4.43
2018-06-23T16:49:53.555Z,3.83
2018-06-23T16:52:21.531Z,4.03
2018-06-23T16:54:49.485Z,4.00
2018-06-23T16:57:17.449Z,3.90
2018-06-23T16:59:45.714Z,4.80
2018-06-23T17:02:13.725Z,3.93
2018-06-23T17:04:41.774Z,4.00
2018-06-23T17:07:09.713Z,4.47
2018-06-23T17:09:37.736Z,4.30
2018-06-23T17:12:05.670Z,3.80
2018-06-23T17:14:33.701Z,4.03
2018-06-23T17:17:01.686Z,4.40
2018-06-23T17:19:29.713Z,4.20
2018-06-23T17:21:57.639Z,3.80
2018-06-23T17:24:25.580Z,4.03
2018-06-23T17:26:53.620Z,3.90
2018-06-23T17:29:21.559Z,4.27
2018-06-23T17:31:49.483Z,4.03
2018-06-23T17:34:17.556Z,3.90
2018-06-23T17:36:45.520Z,4.00
2018-06-23T17:39:13.617Z,4.00
2018-06-23T17:41:41.716Z,4.67
2018-06-23T17:44:09.660Z,4.33
2018-06-23T17:46:37.652Z,4.37
2018-06-23T17:49:05.846Z,4.07
2018-06-23T17:51:33.847Z,4.10
2018-06-23T17:54:01.687Z,4.40
2018-06-23T17:56:29.689Z,4.33
2018-06-23T17:58:57.722Z,3.83
2018-06-23T18:01:25.699Z,3.90
2018-06-23T18:03:53.670Z,4.50
2018-06-23T18:06:21.685Z,3.90
2018-06-23T18:08:49.692Z,3.60
2018-06-23T18:11:17.652Z,3.80
2018-06-23T18:13:45.697Z,3.43
2018-06-23T18:16:13.677Z,3.70
2018-06-23T18:18:41.600Z,3.43
2018-06-23T18:21:09.589Z,3.30
2018-06-23T18:23:37.548Z,3.97
2018-06-23T18:26:05.509Z,3.73
2018-06-23T18:28:33.451Z,4.10
2018-06-23T18:31:01.420Z,3.43
2018-06-23T18:33:29.385Z,4.00
2018-06-23T18:35:57.496Z,4.10
2018-06-23T18:38:25.468Z,4.80
2018-06-23T18:40:53.415Z,4.17
2018-06-23T18:43:21.431Z,4.33
2018-06-23T18:45:49.408Z,4.30
2018-06-23T18:48:17.597Z,4.27
2018-06-23T18:50:45.551Z,3.97
2018-06-23T18:53:13.473Z,4.50
2018-06-23T18:55:41.412Z,4.87
2018-06-23T18:58:09.742Z,5.13
2018-06-23T19:00:37.692Z,4.90
2018-06-23T19:03:05.653Z,4.70
2018-06-23T19:05:33.672Z,4.80
2018-06-23T19:08:01.628Z,4.70
2018-06-23T19:10:29.642Z,4.87
2018-06-23T19:12:57.616Z,4.63
2018-06-23T19:15:25.568Z,5.17
2018-06-23T19:17:53.526Z,4.87
2018-06-23T19:20:21.553Z,4.73
2018-06-23T19:22:49.441Z,5.20
2018-06-23T19:25:17.385Z,5.80
2018-06-23T19:27:45.371Z,4.80
2018-06-23T19:30:13.220Z,5.40
2018-06-23T19:32:41.074Z,5.27
2018-06-23T19:35:09.957Z,4.93
2018-06-23T19:37:37.900Z,5.00
2018-06-23T19:40:05.836Z,5.40
2018-06-23T19:42:33.796Z,5.90
2018-06-23T19:45:01.764Z,4.93
2018-06-23T19:47:29.752Z,5.00
2018-06-23T19:49:57.670Z,6.00
2018-06-23T19:52:25.604Z,5.90
2018-06-23T19:54:53.587Z,4.80
2018-06-23T19:57:21.539Z,4.93
2018-06-23T19:59:49.561Z,4.97
2018-06-23T20:02:17.504Z,5.47
2018-06-23T20:04:45.372Z,5.00
2018-06-23T20:07:13.321Z,5.07
2018-06-23T20:09:41.264Z,5.97
2018-06-23T20:12:09.260Z,5.30
2018-06-23T20:14:37.189Z,5.40
2018-06-23T20:17:05.372Z,5.50
2018-06-23T20:19:33.401Z,5.20
2018-06-23T20:22:01.404Z,5.83
2018-06-23T20:24:29.476Z,5.33
2018-06-23T20:26:57.540Z,5.97
2018-06-23T20:29:25.545Z,5.50
2018-06-23T20:31:53.418Z,5.60
2018-06-23T20:34:21.405Z,5.27
2018-06-23T20:36:49.358Z,5.70
2018-06-23T20:39:17.299Z,5.40
2018-06-23T20:41:45.310Z,6.07
2018-06-23T20:44:13.276Z,5.23
2018-06-23T20:46:41.252Z,5.20
2018-06-23T20:49:09.212Z,5.40
2018-06-23T20:51:37.165Z,5.10
2018-06-23T20:54:05.136Z,6.20
2018-06-23T20:56:33.076Z,5.20
2018-06-23T20:59:01.021Z,5.20
2018-06-23T21:01:28.990Z,4.85
2018-06-23T21:03:56.875Z,4.73
2018-06-23T21:06:24.927Z,5.23
2018-06-23T21:08:52.885Z,4.90
2018-06-23T21:11:20.820Z,4.63
2018-06-23T21:13:48.825Z,5.10
2018-06-23T21:16:16.754Z,4.27
2018-06-23T21:18:44.854Z,4.20
2018-06-23T21:21:12.796Z,3.57
2018-06-23T21:23:41.292Z,3.85
2018-06-23T21:26:10.189Z,3.40
2018-06-23T21:28:38.212Z,3.40
2018-06-23T21:31:06.195Z,3.20
2018-06-23T21:33:34.138Z,3.37
2018-06-23T21:36:02.061Z,2.83
2018-06-23T21:38:30.042Z,3.50
2018-06-23T21:40:58.030Z,3.10
2018-06-23T21:43:26.009Z,3.77
2018-06-23T21:45:53.919Z,3.10
2018-06-23T21:48:21.868Z,2.80
2018-06-23T21:50:49.849Z,2.97
2018-06-23T21:53:17.940Z,3.10
2018-06-23T21:55:45.896Z,2.90
2018-06-23T21:58:13.869Z,3.47
2018-06-23T22:00:43.308Z,2.73
2018-06-23T22:03:12.527Z,2.87
2018-06-23T22:05:41.065Z,3.13
2018-06-23T22:08:09.413Z,2.77
2018-06-23T22:10:37.378Z,3.10
2018-06-23T22:13:05.560Z,3.00
2018-06-23T22:15:33.340Z,3.10
2018-06-23T22:18:01.292Z,3.00
2018-06-23T22:20:29.258Z,2.90
2018-06-23T22:22:57.304Z,2.83
2018-06-23T22:25:25.274Z,2.87
2018-06-23T22:27:53.188Z,3.10
2018-06-23T22:30:21.872Z,3.00
2018-06-23T22:32:50.031Z,3.10
2018-06-23T22:35:18.004Z,3.00
2018-06-23T22:37:45.968Z,3.33
2018-06-23T22:40:13.758Z,3.00
2018-06-23T22:42:41.920Z,3.17
2018-06-23T22:45:09.853Z,2.70
2018-06-23T22:47:37.912Z,3.10
2018-06-23T22:50:08.572Z,3.30
2018-06-23T22:52:36.735Z,3.00
2018-06-23T22:55:04.823Z,2.80
2018-06-23T22:57:32.786Z,3.63
2018-06-23T23:00:00.776Z,2.70
2018-06-23T23:02:28.760Z,2.67
2018-06-23T23:04:56.734Z,3.63
2018-06-23T23:07:24.598Z,3.20
2018-06-23T23:09:52.538Z,2.90
2018-06-23T23:12:20.477Z,2.97
2018-06-23T23:14:48.409Z,2.95
2018-06-23T23:17:16.364Z,2.90
2018-06-23T23:19:44.304Z,2.97
2018-06-23T23:22:12.560Z,3.95
2018-06-23T23:24:40.504Z,2.93
2018-06-23T23:27:08.445Z,3.30
2018-06-23T23:29:36.256Z,3.00
2018-06-23T23:32:04.200Z,3.50
2018-06-23T23:34:31.978Z,2.93
2018-06-23T23:36:59.936Z,3.30
2018-06-23T23:39:27.943Z,3.23
2018-06-23T23:41:55.884Z,3.40
2018-06-23T23:44:23.828Z,3.20
2018-06-23T23:46:51.792Z,3.37
2018-06-23T23:49:19.752Z,3.47
2018-06-23T23:51:47.713Z,3.33
2018-06-23T23:54:15.770Z,3.50
2018-06-23T23:56:43.729Z,3.17
2018-06-23T23:59:12.471Z,4.07
